This is the latest recevied weather packets stored in our database for station/object WP3OF-1. If no packets are shown the sender has not sent any weather packets the latest 10 day(s).
| Time | Temp. | Humidity | Pressure | Rain* | Wind** | Luminosity | Snow |
|---|---|---|---|---|---|---|---|
| 1778100811 | 27.78° C | 78% | 1016.7 hPa | 0 mm | - | - | - |
| 1778100503 | 28.33° C | 78% | 1016.8 hPa | 0 mm | - | - | - |
| 1778100201 | 27.78° C | 78% | 1016.8 hPa | 0 mm | - | - | - |
| 1778099898 | 27.78° C | 78% | 1016.9 hPa | 0 mm | - | - | - |
| 1778099595 | 27.78° C | 77% | 1016.7 hPa | 0 mm | - | - | - |
| 1778099292 | 27.78° C | 78% | 1017 hPa | 0 mm | - | - | - |
| 1778098989 | 28.33° C | 75% | 1016.6 hPa | 0 mm | - | - | - |
| 1778098685 | 27.78° C | 77% | 1016.8 hPa | 0 mm | - | - | - |
| 1778098383 | 28.33° C | 75% | 1016.8 hPa | 0 mm | - | - | - |
| 1778098080 | 28.33° C | 76% | 1016.7 hPa | 0 mm | - | - | - |
| 1778097776 | 28.33° C | 74% | 1017 hPa | 0 mm | - | - | - |
| 1778097472 | 28.33° C | 74% | 1017 hPa | 0 mm | - | - | - |
| 1778097169 | 28.33° C | 75% | 1017.1 hPa | 0 mm | - | - | - |
| 1778096866 | 27.78° C | 76% | 1017.2 hPa | 0 mm | - | - | - |
| 1778096563 | 28.33° C | 76% | 1017.4 hPa | 0 mm | - | - | - |
| 1778096260 | 28.33° C | 76% | 1017.1 hPa | 0 mm | - | - | - |
| 1778095957 | 28.33° C | 74% | 1017.2 hPa | 0 mm | - | - | - |
| 1778095653 | 28.33° C | 76% | 1017.3 hPa | 0 mm | - | - | - |
| 1778095350 | 29.44° C | 72% | 1017 hPa | 0 mm | - | - | - |
| 1778095047 | 28.89° C | 74% | 1017.2 hPa | 0 mm | - | - | - |
| 1778094743 | 28.89° C | 74% | 1017.1 hPa | 0 mm | - | - | - |
| 1778094441 | 28.33° C | 76% | 1017.2 hPa | 0 mm | - | - | - |
| 1778094137 | 29.44° C | 73% | 1017.3 hPa | 0 mm | - | - | - |
| 1778093834 | 28.33° C | 75% | 1017.2 hPa | 0 mm | - | - | - |
| 1778093530 | 28.89° C | 75% | 1017.2 hPa | 0 mm | - | - | - |
* Rain latest hour (hover to see other rain measurements)
** Current wind speed in m/s (hover to see current wind gust speed)